createdAt,value
2017-03-23T07:12:24.747Z,1016.8
2017-03-23T07:13:24.780Z,1016.79
2017-03-23T07:14:24.786Z,1016.79
2017-03-23T07:15:24.835Z,1016.86
2017-03-23T07:16:24.839Z,1016.86
2017-03-23T07:17:24.885Z,1016.79
2017-03-23T07:18:24.912Z,1016.87
2017-03-23T07:19:24.938Z,1016.82
2017-03-23T07:20:24.966Z,1016.89
2017-03-23T07:21:24.977Z,1016.88
2017-03-23T07:22:25.021Z,1016.81
2017-03-23T07:23:25.047Z,1016.86
2017-03-23T07:24:25.080Z,1016.84
2017-03-23T07:25:25.090Z,1016.9
2017-03-23T07:26:25.130Z,1016.92
2017-03-23T07:27:25.160Z,1016.91
2017-03-23T07:28:25.188Z,1016.88
2017-03-23T07:29:25.215Z,1016.89
2017-03-23T07:30:25.240Z,1016.88
2017-03-23T07:31:25.269Z,1016.89
2017-03-23T07:32:25.277Z,1016.92
2017-03-23T07:33:25.324Z,1016.87
2017-03-23T07:34:25.356Z,1016.89
2017-03-23T07:35:25.381Z,1016.91
2017-03-23T07:36:25.405Z,1016.89
2017-03-23T07:37:25.434Z,1016.96
2017-03-23T07:38:25.465Z,1016.92
2017-03-23T07:39:25.490Z,1016.96
2017-03-23T07:40:25.520Z,1016.95
2017-03-23T07:41:25.543Z,1016.98
2017-03-23T07:42:25.575Z,1016.93
2017-03-23T07:43:25.602Z,1016.94
2017-03-23T07:44:25.630Z,1016.9
2017-03-23T07:45:25.657Z,1016.95
2017-03-23T07:46:25.683Z,1016.94
2017-03-23T07:47:25.709Z,1016.92
2017-03-23T07:48:25.739Z,1017
2017-03-23T07:49:25.769Z,1016.98
2017-03-23T07:50:25.793Z,1016.97
2017-03-23T07:51:25.820Z,1017
2017-03-23T07:52:25.848Z,1017.03
2017-03-23T07:53:25.880Z,1017
2017-03-23T07:54:25.893Z,1017.04
2017-03-23T07:55:25.933Z,1017.02
2017-03-23T07:56:25.956Z,1017.02
2017-03-23T07:57:26.087Z,1017.04
2017-03-23T07:58:26.013Z,1017.01
2017-03-23T07:59:26.046Z,1017.01
2017-03-23T08:00:26.069Z,1017.03
2017-03-23T08:01:26.093Z,1017.03
2017-03-23T08:02:26.126Z,1017.04
2017-03-23T08:03:26.136Z,1017.06
2017-03-23T08:04:26.185Z,1017.09
2017-03-23T08:05:26.190Z,1017.04
2017-03-23T08:06:26.218Z,1017.09
2017-03-23T08:07:26.264Z,1017.13
2017-03-23T08:08:26.290Z,1017.13
2017-03-23T08:09:26.323Z,1017.06
2017-03-23T08:10:26.349Z,1017.09
2017-03-23T08:11:26.358Z,1017.02
2017-03-23T08:12:26.388Z,1017.06
2017-03-23T08:13:26.431Z,1017.06
2017-03-23T08:14:26.456Z,1017.1
2017-03-23T08:15:26.486Z,1017.08
2017-03-23T08:16:26.515Z,1017.11
2017-03-23T08:17:26.541Z,1017.11
2017-03-23T08:18:26.570Z,1017.04
2017-03-23T08:19:26.599Z,1017.01
2017-03-23T08:20:26.625Z,1017.09
2017-03-23T08:21:26.655Z,1017.09
2017-03-23T08:22:26.679Z,1017.1
2017-03-23T08:23:26.709Z,1017.07
2017-03-23T08:24:26.738Z,1017.08
2017-03-23T08:25:26.758Z,1017.08
2017-03-23T08:26:26.790Z,1017.1
2017-03-23T08:27:26.820Z,1017.11
2017-03-23T08:28:26.849Z,1017.1
2017-03-23T08:29:26.878Z,1017.1
2017-03-23T08:30:26.897Z,1017.11
2017-03-23T08:31:26.931Z,1017.15
2017-03-23T08:32:26.960Z,1017.1
2017-03-23T08:33:26.988Z,1017.01
2017-03-23T08:34:27.018Z,1017.09
2017-03-23T08:35:27.038Z,1017.02
2017-03-23T08:36:27.069Z,1017.06
2017-03-23T08:37:27.094Z,1017.01
2017-03-23T08:38:27.129Z,1017.03
2017-03-23T08:39:27.157Z,1017.05
2017-03-23T08:40:27.182Z,1017.04
2017-03-23T08:41:27.194Z,1017.07
2017-03-23T08:42:27.242Z,1017.07
2017-03-23T08:43:27.274Z,1017.01
2017-03-23T08:44:27.295Z,1016.99
2017-03-23T08:45:27.321Z,1017.03
2017-03-23T08:46:27.356Z,1017.02
2017-03-23T08:47:27.384Z,1017.02
2017-03-23T08:48:27.513Z,1017.04
2017-03-23T08:49:27.435Z,1017.01
2017-03-23T08:50:27.468Z,1017.04
2017-03-23T08:51:27.493Z,1017.05
2017-03-23T08:52:27.523Z,1017.12
2017-03-23T08:53:27.556Z,1017.14
2017-03-23T08:54:27.581Z,1017.13
2017-03-23T08:55:27.592Z,1017.14
2017-03-23T08:56:27.643Z,1017.16
2017-03-23T08:57:27.668Z,1017.1
2017-03-23T08:58:27.693Z,1017.1
2017-03-23T08:59:27.720Z,1017.13
2017-03-23T09:00:27.755Z,1017.07
2017-03-23T09:01:27.784Z,1017.06
2017-03-23T09:02:27.815Z,1017.06
2017-03-23T09:03:27.839Z,1017.11
2017-03-23T09:04:27.869Z,1017.15
2017-03-23T09:05:27.945Z,1017.08
2017-03-23T09:06:27.927Z,1017.07
2017-03-23T09:07:27.951Z,1017.14
2017-03-23T09:08:27.987Z,1017.12
2017-03-23T09:09:28.002Z,1017.07
2017-03-23T09:10:28.047Z,1017.04
2017-03-23T09:11:28.071Z,1017.03
2017-03-23T09:12:28.078Z,1017.01
2017-03-23T09:13:28.126Z,1017.01
2017-03-23T09:14:28.156Z,1017.01
2017-03-23T09:15:28.190Z,1017.02
2017-03-23T09:16:28.209Z,1017.02
2017-03-23T09:17:28.243Z,1017.04
2017-03-23T09:18:28.268Z,1017.02
2017-03-23T09:19:28.301Z,1017.03
2017-03-23T09:20:28.329Z,1017.02
2017-03-23T09:21:28.355Z,1017
2017-03-23T09:22:28.389Z,1016.97
2017-03-23T09:23:28.400Z,1016.98
2017-03-23T09:24:28.444Z,1016.99
2017-03-23T09:25:28.478Z,1016.97
2017-03-23T09:26:28.504Z,1016.93
2017-03-23T09:27:28.512Z,1016.96
2017-03-23T09:28:28.562Z,1016.95
2017-03-23T09:29:28.594Z,1016.98
2017-03-23T09:30:28.620Z,1016.96
2017-03-23T09:31:28.647Z,1016.92
2017-03-23T09:32:28.658Z,1016.97
2017-03-23T09:33:28.704Z,1016.97
2017-03-23T09:34:28.736Z,1016.98
2017-03-23T09:35:28.762Z,1016.97
2017-03-23T09:36:28.790Z,1016.93
2017-03-23T09:37:28.825Z,1017.03
2017-03-23T09:38:28.852Z,1016.95
2017-03-23T09:39:28.980Z,1016.97
2017-03-23T09:40:28.903Z,1016.94
2017-03-23T09:41:28.937Z,1016.93
2017-03-23T09:42:28.968Z,1016.93
2017-03-23T09:43:28.997Z,1016.92
2017-03-23T09:44:29.023Z,1016.95
2017-03-23T09:45:29.051Z,1016.91
2017-03-23T09:46:29.078Z,1016.91
2017-03-23T09:47:29.088Z,1016.9
2017-03-23T09:48:29.140Z,1016.95
2017-03-23T09:49:29.164Z,1016.93
2017-03-23T09:50:29.195Z,1016.95
2017-03-23T09:51:29.225Z,1016.99
2017-03-23T09:52:29.258Z,1016.97
2017-03-23T09:53:29.277Z,1016.97
2017-03-23T09:54:29.309Z,1016.95
2017-03-23T09:55:29.339Z,1016.96
2017-03-23T09:56:29.370Z,1016.94
2017-03-23T09:57:29.403Z,1016.94
2017-03-23T09:58:29.425Z,1016.94
2017-03-23T09:59:29.450Z,1016.96
2017-03-23T10:00:29.463Z,1016.94
2017-03-23T10:01:29.508Z,1016.92
2017-03-23T10:02:29.541Z,1016.93
2017-03-23T10:03:29.571Z,1016.91
2017-03-23T10:04:29.598Z,1016.9
2017-03-23T10:05:29.630Z,1016.89
2017-03-23T10:06:29.656Z,1016.88
2017-03-23T10:07:29.682Z,1016.91
2017-03-23T10:08:29.708Z,1016.9
2017-03-23T10:09:29.741Z,1016.92
2017-03-23T10:10:29.773Z,1016.89
2017-03-23T10:11:29.803Z,1016.91
2017-03-23T10:12:29.829Z,1016.91
2017-03-23T10:13:29.841Z,1016.94
2017-03-23T10:14:29.884Z,1016.9
2017-03-23T10:15:29.900Z,1016.9
2017-03-23T10:16:29.941Z,1016.91
2017-03-23T10:17:29.974Z,1016.96
2017-03-23T10:18:30.004Z,1016.95
2017-03-23T10:19:30.035Z,1016.99
2017-03-23T10:20:30.062Z,1016.98
2017-03-23T10:21:30.091Z,1017.06
2017-03-23T10:22:30.100Z,1017.03
2017-03-23T10:23:30.147Z,1016.98
2017-03-23T10:24:30.179Z,1016.98
2017-03-23T10:25:30.559Z,1017
2017-03-23T10:26:30.239Z,1017.03
2017-03-23T10:27:30.263Z,1017.08
2017-03-23T10:28:30.295Z,1017.06
2017-03-23T10:29:30.325Z,1017.06
2017-03-23T10:30:30.355Z,1017.07
2017-03-23T10:31:30.381Z,1017.08
2017-03-23T10:32:30.409Z,1017.09
2017-03-23T10:33:30.440Z,1017.12
2017-03-23T10:34:30.469Z,1017.12
2017-03-23T10:35:30.501Z,1017.1
2017-03-23T10:36:30.530Z,1017.1
2017-03-23T10:37:30.558Z,1017.08
2017-03-23T10:38:30.587Z,1017.09
2017-03-23T10:39:30.639Z,1017.1
2017-03-23T10:40:30.648Z,1017.08
2017-03-23T10:41:30.654Z,1017.07
2017-03-23T10:42:30.705Z,1017.09
2017-03-23T10:43:30.738Z,1017.09
2017-03-23T10:44:30.764Z,1017.09
2017-03-23T10:45:30.792Z,1017.1
2017-03-23T10:46:30.821Z,1017.13
2017-03-23T10:47:30.854Z,1017.13
2017-03-23T10:48:30.884Z,1017.12
2017-03-23T10:49:30.912Z,1017.11
2017-03-23T10:50:30.942Z,1017.07
2017-03-23T10:51:30.967Z,1017.12
2017-03-23T10:52:30.999Z,1017.09
2017-03-23T10:53:31.017Z,1017.11
2017-03-23T10:54:31.059Z,1017.09
2017-03-23T10:55:31.087Z,1017.1
2017-03-23T10:56:31.115Z,1017.08
2017-03-23T10:57:31.148Z,1017.04
2017-03-23T10:58:31.187Z,1017.07
2017-03-23T10:59:31.208Z,1017.12
2017-03-23T11:00:31.231Z,1017.06
2017-03-23T11:01:31.262Z,1017.02
2017-03-23T11:02:31.292Z,1016.99
2017-03-23T11:03:31.325Z,1017.04
2017-03-23T11:04:31.354Z,1017.01
2017-03-23T11:05:31.593Z,1016.97
2017-03-23T11:06:31.413Z,1017
2017-03-23T11:07:31.421Z,1017.01
2017-03-23T11:08:31.469Z,1017.01
2017-03-23T11:09:31.499Z,1016.97
2017-03-23T11:10:31.525Z,1016.99
2017-03-23T11:11:31.561Z,1017.03
2017-03-23T11:12:31.592Z,1016.98
2017-03-23T11:13:31.617Z,1016.97
2017-03-23T11:14:31.745Z,1016.91
2017-03-23T11:15:31.678Z,1016.92
2017-03-23T11:16:31.705Z,1016.95
2017-03-23T11:17:31.735Z,1016.89
2017-03-23T11:18:31.768Z,1017.02
2017-03-23T11:19:31.800Z,1017.04
2017-03-23T11:20:31.827Z,1017.01
2017-03-23T11:21:31.856Z,1016.96
2017-03-23T11:22:31.884Z,1016.98
2017-03-23T11:23:31.910Z,1016.92
2017-03-23T11:24:31.943Z,1016.95
2017-03-23T11:25:31.972Z,1016.93
2017-03-23T11:26:32.001Z,1016.93
2017-03-23T11:27:32.030Z,1016.91
2017-03-23T11:28:32.061Z,1016.93
2017-03-23T11:29:32.089Z,1016.93
2017-03-23T11:30:32.124Z,1016.89
2017-03-23T11:31:32.152Z,1016.92
2017-03-23T11:32:32.158Z,1017
2017-03-23T11:33:32.207Z,1016.96
2017-03-23T11:34:32.237Z,1016.97
2017-03-23T11:35:32.268Z,1017
2017-03-23T11:36:32.299Z,1017.04
2017-03-23T11:37:32.324Z,1016.97
2017-03-23T11:38:32.357Z,1017.02
2017-03-23T11:39:32.385Z,1016.99
2017-03-23T11:40:32.417Z,1016.98
2017-03-23T11:41:32.433Z,1017.07
2017-03-23T11:42:32.475Z,1017.04
2017-03-23T11:43:32.500Z,1017.05
2017-03-23T11:44:32.537Z,1016.98
2017-03-23T11:45:32.561Z,1017.03
2017-03-23T11:46:32.592Z,1017
2017-03-23T11:47:32.620Z,1016.99
2017-03-23T11:48:32.652Z,1017.03
2017-03-23T11:49:32.679Z,1017.03
2017-03-23T11:50:32.688Z,1017.02
2017-03-23T11:51:32.736Z,1017.08
2017-03-23T11:52:32.761Z,1017.03
2017-03-23T11:53:32.837Z,1017.03
2017-03-23T11:54:32.823Z,1017.03
2017-03-23T11:55:32.852Z,1017.03
2017-03-23T11:56:32.864Z,1017.03
2017-03-23T11:57:32.916Z,1017.03
2017-03-23T11:58:32.937Z,1017.02
2017-03-23T11:59:32.968Z,1016.98
2017-03-23T12:00:33.004Z,1017.05
2017-03-23T12:01:33.039Z,1017
2017-03-23T12:02:33.059Z,1016.98
2017-03-23T12:03:33.093Z,1017.05
2017-03-23T12:04:33.118Z,1016.97
2017-03-23T12:05:33.140Z,1017
2017-03-23T12:06:33.170Z,1017.03
2017-03-23T12:07:33.205Z,1016.98
2017-03-23T12:08:33.229Z,1016.98
2017-03-23T12:09:33.263Z,1016.99
2017-03-23T12:10:33.287Z,1016.98
2017-03-23T12:11:33.320Z,1016.93
2017-03-23T12:12:33.349Z,1016.99
2017-03-23T12:13:33.360Z,1016.94
2017-03-23T12:14:33.419Z,1016.97
2017-03-23T12:15:33.420Z,1016.9
2017-03-23T12:16:33.467Z,1016.93
2017-03-23T12:17:33.494Z,1016.87
2017-03-23T12:18:33.526Z,1016.89
2017-03-23T12:19:33.552Z,1016.87
2017-03-23T12:20:33.584Z,1016.89
2017-03-23T12:21:33.617Z,1016.85
2017-03-23T12:22:33.624Z,1016.86
2017-03-23T12:23:33.673Z,1016.83
2017-03-23T12:24:33.700Z,1016.85
2017-03-23T12:25:33.736Z,1016.81
2017-03-23T12:26:33.762Z,1016.83
2017-03-23T12:27:33.792Z,1016.77
2017-03-23T12:28:33.822Z,1016.8
2017-03-23T12:29:33.856Z,1016.81
2017-03-23T12:30:33.882Z,1016.82
2017-03-23T12:31:33.911Z,1016.84
2017-03-23T12:32:33.937Z,1016.85
2017-03-23T12:33:33.971Z,1016.85
2017-03-23T12:34:34.003Z,1016.81
2017-03-23T12:35:34.033Z,1016.9
2017-03-23T12:36:34.071Z,1016.86
2017-03-23T12:37:34.091Z,1016.82
2017-03-23T12:38:34.125Z,1016.76
2017-03-23T12:39:34.152Z,1016.72
2017-03-23T12:40:34.182Z,1016.73
2017-03-23T12:41:34.210Z,1016.75
2017-03-23T12:42:34.235Z,1016.69
2017-03-23T12:43:34.272Z,1016.67
2017-03-23T12:44:34.301Z,1016.63
2017-03-23T12:45:34.336Z,1016.56
2017-03-23T12:46:34.356Z,1016.52
2017-03-23T12:47:34.392Z,1016.49
2017-03-23T12:48:34.426Z,1016.44
2017-03-23T12:49:34.454Z,1016.48
2017-03-23T12:50:34.463Z,1016.4
2017-03-23T12:51:34.518Z,1016.45
2017-03-23T12:52:34.537Z,1016.43
2017-03-23T12:53:34.571Z,1016.43
2017-03-23T12:54:34.602Z,1016.42
2017-03-23T12:55:34.635Z,1016.44
2017-03-23T12:56:34.818Z,1016.48
2017-03-23T12:57:34.694Z,1016.49
2017-03-23T12:58:34.723Z,1016.53
2017-03-23T12:59:34.752Z,1016.54
2017-03-23T13:00:34.783Z,1016.45
2017-03-23T13:01:34.821Z,1016.53
2017-03-23T13:02:34.835Z,1016.53
2017-03-23T13:03:34.860Z,1016.5
2017-03-23T13:04:34.905Z,1016.57
2017-03-23T13:05:34.941Z,1016.57
2017-03-23T13:06:34.966Z,1016.57
2017-03-23T13:07:35.002Z,1016.47
2017-03-23T13:08:35.031Z,1016.56
2017-03-23T13:09:35.055Z,1016.54
2017-03-23T13:10:35.085Z,1016.58
2017-03-23T13:11:35.117Z,1016.58
2017-03-23T13:12:35.135Z,1016.6
2017-03-23T13:13:35.180Z,1016.61
2017-03-23T13:14:35.206Z,1016.59
2017-03-23T13:15:35.216Z,1016.57
2017-03-23T13:16:35.269Z,1016.59
2017-03-23T13:17:35.298Z,1016.52
2017-03-23T13:18:35.333Z,1016.56
2017-03-23T13:19:35.360Z,1016.51
2017-03-23T13:20:35.388Z,1016.53
2017-03-23T13:21:35.419Z,1016.47
2017-03-23T13:22:35.450Z,1016.54
2017-03-23T13:23:35.479Z,1016.49
2017-03-23T13:24:35.511Z,1016.58
2017-03-23T13:25:35.519Z,1016.5
2017-03-23T13:26:35.569Z,1016.46
2017-03-23T13:27:35.606Z,1016.53
2017-03-23T13:28:35.631Z,1016.51
2017-03-23T13:29:35.660Z,1016.47
2017-03-23T13:30:35.693Z,1016.47
2017-03-23T13:31:35.720Z,1016.47
2017-03-23T13:32:35.750Z,1016.47
2017-03-23T13:33:35.780Z,1016.43
2017-03-23T13:34:35.812Z,1016.47
2017-03-23T13:35:35.845Z,1016.49
2017-03-23T13:36:35.878Z,1016.43
2017-03-23T13:37:35.907Z,1016.4
2017-03-23T13:38:35.936Z,1016.47
2017-03-23T13:39:35.964Z,1016.43
2017-03-23T13:40:35.992Z,1016.38
2017-03-23T13:41:36.026Z,1016.4
2017-03-23T13:42:36.203Z,1016.45
2017-03-23T13:43:36.092Z,1016.4
2017-03-23T13:44:36.110Z,1016.43
2017-03-23T13:45:36.144Z,1016.4
2017-03-23T13:46:36.174Z,1016.45
2017-03-23T13:47:36.207Z,1016.47
2017-03-23T13:48:36.238Z,1016.46
2017-03-23T13:49:36.265Z,1016.58
2017-03-23T13:50:36.294Z,1016.54
2017-03-23T13:51:36.324Z,1016.53
2017-03-23T13:52:36.355Z,1016.59
2017-03-23T13:53:36.390Z,1016.56
2017-03-23T13:54:36.416Z,1016.68
2017-03-23T13:55:36.452Z,1016.68
2017-03-23T13:56:36.481Z,1016.7
2017-03-23T13:57:36.491Z,1016.69
2017-03-23T13:58:36.542Z,1016.58
2017-03-23T13:59:36.573Z,1016.61
2017-03-23T14:00:36.599Z,1016.7
2017-03-23T14:01:36.626Z,1016.67
2017-03-23T14:02:36.639Z,1016.69
2017-03-23T14:03:36.687Z,1016.72
2017-03-23T14:04:36.716Z,1016.72
2017-03-23T14:05:36.746Z,1016.72
2017-03-23T14:06:36.775Z,1016.77
2017-03-23T14:07:36.802Z,1016.79
2017-03-23T14:08:36.834Z,1016.75
2017-03-23T14:09:36.850Z,1016.78
2017-03-23T14:10:36.894Z,1016.87
2017-03-23T14:11:36.926Z,1016.9
2017-03-23T14:12:36.954Z,1016.89
2017-03-23T14:13:36.978Z,1016.95
2017-03-23T14:14:37.010Z,1016.97
2017-03-23T14:15:37.044Z,1017.01
2017-03-23T14:16:37.051Z,1016.93
2017-03-23T14:17:37.100Z,1016.93
2017-03-23T14:18:37.129Z,1017.03
2017-03-23T14:19:37.137Z,1017.09
2017-03-23T14:20:37.193Z,1017.05
2017-03-23T14:21:37.218Z,1017.05
2017-03-23T14:22:37.248Z,1017.01
2017-03-23T14:23:37.277Z,1017.07
2017-03-23T14:24:37.308Z,1017.06
2017-03-23T14:25:37.397Z,1017.08
2017-03-23T14:26:37.359Z,1017.07
2017-03-23T14:27:37.438Z,1017.05
2017-03-23T14:28:37.422Z,1017.13
2017-03-23T14:29:37.453Z,1017.1
2017-03-23T14:30:37.483Z,1017.14
2017-03-23T14:31:37.508Z,1017.11
2017-03-23T14:32:37.543Z,1017.09
2017-03-23T14:33:37.570Z,1017.08
2017-03-23T14:34:37.596Z,1017.07
2017-03-23T14:35:37.631Z,1017.08
2017-03-23T14:36:37.653Z,1017.09
2017-03-23T14:37:37.692Z,1017.05
2017-03-23T14:38:37.718Z,1017.06
2017-03-23T14:39:37.748Z,1016.96
2017-03-23T14:40:37.771Z,1016.98
2017-03-23T14:41:37.808Z,1017.02
2017-03-23T14:42:37.833Z,1017.03
2017-03-23T14:43:37.859Z,1017
2017-03-23T14:44:37.891Z,1017.09
2017-03-23T14:45:37.918Z,1017.06
2017-03-23T14:46:37.947Z,1017.12
2017-03-23T14:47:37.979Z,1017.13
2017-03-23T14:48:38.011Z,1017.09
2017-03-23T14:49:38.040Z,1017.08
2017-03-23T14:50:38.052Z,1017.16
2017-03-23T14:51:38.098Z,1017.11
2017-03-23T14:52:38.123Z,1017.16
2017-03-23T14:53:38.155Z,1017.13
2017-03-23T14:54:38.182Z,1017.11
2017-03-23T14:55:38.213Z,1017.13
2017-03-23T14:56:38.240Z,1017.13
2017-03-23T14:57:38.273Z,1017.07
2017-03-23T14:58:38.299Z,1017.12
2017-03-23T14:59:38.330Z,1017.08
2017-03-23T15:00:38.337Z,1017.08
2017-03-23T15:01:38.389Z,1017.05
2017-03-23T15:02:38.419Z,1017.04
2017-03-23T15:03:38.449Z,1017.05
2017-03-23T15:04:38.456Z,1017
2017-03-23T15:05:38.508Z,1016.97
2017-03-23T15:06:38.534Z,1016.97
2017-03-23T15:07:38.561Z,1016.98
2017-03-23T15:08:38.594Z,1017.03
2017-03-23T15:09:38.620Z,1017.02
2017-03-23T15:10:38.654Z,1017.04
2017-03-23T15:11:38.683Z,1017.05
2017-03-23T15:12:38.712Z,1017.1
2017-03-23T15:13:38.744Z,1017.09
2017-03-23T15:14:38.774Z,1017.07
2017-03-23T15:15:38.794Z,1017.16
2017-03-23T15:16:38.927Z,1017.21
2017-03-23T15:17:38.839Z,1017.21
2017-03-23T15:18:38.887Z,1017.3
2017-03-23T15:19:38.919Z,1017.31
2017-03-23T15:20:38.947Z,1017.31
2017-03-23T15:21:38.981Z,1017.32
2017-03-23T15:22:38.999Z,1017.34
2017-03-23T15:23:39.031Z,1017.36
2017-03-23T15:24:39.053Z,1017.33
2017-03-23T15:25:39.093Z,1017.35
2017-03-23T15:26:39.123Z,1017.31
2017-03-23T15:27:39.154Z,1017.34
2017-03-23T15:28:39.179Z,1017.27
2017-03-23T15:29:39.208Z,1017.34
2017-03-23T15:30:39.242Z,1017.25
2017-03-23T15:31:39.250Z,1017.23
2017-03-23T15:32:39.295Z,1017.28
2017-03-23T15:33:39.311Z,1017.24
2017-03-23T15:34:39.360Z,1017.27
2017-03-23T15:35:39.373Z,1017.22
2017-03-23T15:36:39.415Z,1017.26
2017-03-23T15:37:39.440Z,1017.28
2017-03-23T15:38:39.477Z,1017.27
2017-03-23T15:39:39.501Z,1017.22
2017-03-23T15:40:39.528Z,1017.22
2017-03-23T15:41:39.566Z,1017.2
2017-03-23T15:42:39.591Z,1017.24
2017-03-23T15:43:39.618Z,1017.19
2017-03-23T15:44:39.649Z,1017.23
2017-03-23T15:45:39.672Z,1017.22
2017-03-23T15:46:39.706Z,1017.19
2017-03-23T15:47:39.720Z,1017.22
2017-03-23T15:48:39.767Z,1017.24
2017-03-23T15:49:39.791Z,1017.2
2017-03-23T15:50:39.824Z,1017.23
2017-03-23T15:51:39.850Z,1017.22
2017-03-23T15:52:39.881Z,1017.19
2017-03-23T15:53:39.911Z,1017.25
2017-03-23T15:54:39.942Z,1017.24
2017-03-23T15:55:39.968Z,1017.24
2017-03-23T15:56:39.999Z,1017.22
2017-03-23T15:57:40.029Z,1017.24
2017-03-23T15:58:40.053Z,1017.21
2017-03-23T15:59:40.071Z,1017.26
2017-03-23T16:00:40.101Z,1017.25
2017-03-23T16:01:40.145Z,1017.24
2017-03-23T16:02:40.321Z,1017.31
2017-03-23T16:03:40.200Z,1017.28
2017-03-23T16:04:40.232Z,1017.25
2017-03-23T16:05:40.266Z,1017.28
2017-03-23T16:06:40.294Z,1017.28
2017-03-23T16:07:40.321Z,1017.32
2017-03-23T16:08:40.345Z,1017.25
2017-03-23T16:09:40.372Z,1017.3
2017-03-23T16:10:40.403Z,1017.27
2017-03-23T16:11:40.474Z,1017.28
2017-03-23T16:12:40.465Z,1017.27
2017-03-23T16:13:40.492Z,1017.29
2017-03-23T16:14:40.554Z,1017.25
2017-03-23T16:15:40.558Z,1017.23
2017-03-23T16:16:40.578Z,1017.26
2017-03-23T16:17:40.608Z,1017.19
2017-03-23T16:18:40.641Z,1017.18
2017-03-23T16:19:40.671Z,1017.23
2017-03-23T16:20:40.696Z,1017.19
2017-03-23T16:21:40.723Z,1017.23
2017-03-23T16:22:40.750Z,1017.25
2017-03-23T16:23:40.780Z,1017.32
2017-03-23T16:24:40.852Z,1017.29
2017-03-23T16:25:40.838Z,1017.32
2017-03-23T16:26:40.870Z,1017.34
2017-03-23T16:27:40.894Z,1017.36
2017-03-23T16:28:40.925Z,1017.43
2017-03-23T16:29:40.958Z,1017.41
2017-03-23T16:30:40.972Z,1017.4
2017-03-23T16:31:40.990Z,1017.46
2017-03-23T16:32:41.039Z,1017.49
2017-03-23T16:33:41.075Z,1017.45
2017-03-23T16:34:41.081Z,1017.46
2017-03-23T16:35:41.128Z,1017.5
2017-03-23T16:36:41.157Z,1017.59
2017-03-23T16:37:41.170Z,1017.55
2017-03-23T16:38:41.217Z,1017.54
2017-03-23T16:39:41.243Z,1017.56
2017-03-23T16:40:41.271Z,1017.61
2017-03-23T16:41:41.301Z,1017.6
2017-03-23T16:42:41.327Z,1017.61
2017-03-23T16:43:41.359Z,1017.58
2017-03-23T16:44:41.369Z,1017.6
2017-03-23T16:45:41.412Z,1017.61
2017-03-23T16:46:41.443Z,1017.6
2017-03-23T16:47:41.473Z,1017.6
2017-03-23T16:48:41.500Z,1017.64
2017-03-23T16:49:41.531Z,1017.66
2017-03-23T16:50:41.560Z,1017.66
2017-03-23T16:51:41.586Z,1017.64
2017-03-23T16:52:41.625Z,1017.66
2017-03-23T16:53:41.647Z,1017.69
2017-03-23T16:54:41.673Z,1017.74
2017-03-23T16:55:41.703Z,1017.76
2017-03-23T16:56:41.732Z,1017.8
2017-03-23T16:57:41.760Z,1017.8
2017-03-23T16:58:41.942Z,1017.84
2017-03-23T16:59:41.817Z,1017.85
2017-03-23T17:00:41.850Z,1017.91
2017-03-23T17:01:41.880Z,1017.87
2017-03-23T17:02:41.908Z,1017.92
2017-03-23T17:03:41.933Z,1017.92
2017-03-23T17:04:41.965Z,1017.94
2017-03-23T17:05:41.992Z,1017.91
2017-03-23T17:06:42.021Z,1017.99
2017-03-23T17:07:42.051Z,1017.99
2017-03-23T17:08:42.081Z,1018.01
2017-03-23T17:09:42.111Z,1017.99
2017-03-23T17:10:42.141Z,1017.95
2017-03-23T17:11:42.166Z,1017.97
2017-03-23T17:12:42.181Z,1017.96
2017-03-23T17:13:42.221Z,1017.96
2017-03-23T17:14:42.252Z,1017.98
2017-03-23T17:15:42.280Z,1018.04
2017-03-23T17:16:42.309Z,1018.05
2017-03-23T17:17:42.339Z,1018.06
2017-03-23T17:18:42.370Z,1018.08
2017-03-23T17:19:42.378Z,1018.08
2017-03-23T17:20:42.429Z,1018.08
2017-03-23T17:21:42.466Z,1018.1
2017-03-23T17:22:42.483Z,1018.15
2017-03-23T17:23:42.510Z,1018.19
2017-03-23T17:24:42.540Z,1018.2
2017-03-23T17:25:42.570Z,1018.24
2017-03-23T17:26:42.597Z,1018.24
2017-03-23T17:27:42.627Z,1018.25
2017-03-23T17:28:42.680Z,1018.27
2017-03-23T17:29:42.678Z,1018.24
2017-03-23T17:30:42.722Z,1018.25
2017-03-23T17:31:42.742Z,1018.22
2017-03-23T17:32:42.765Z,1018.24
2017-03-23T17:33:42.800Z,1018.28
2017-03-23T17:34:42.827Z,1018.27
2017-03-23T17:35:42.859Z,1018.3
2017-03-23T17:36:42.885Z,1018.31
2017-03-23T17:37:42.893Z,1018.3
2017-03-23T17:38:42.949Z,1018.3
2017-03-23T17:39:42.971Z,1018.33
2017-03-23T17:40:42.999Z,1018.36
2017-03-23T17:41:43.029Z,1018.36
2017-03-23T17:42:43.059Z,1018.38
2017-03-23T17:43:43.091Z,1018.42
2017-03-23T17:44:43.113Z,1018.41
2017-03-23T17:45:43.145Z,1018.4
2017-03-23T17:46:43.161Z,1018.41
2017-03-23T17:47:43.202Z,1018.4
2017-03-23T17:48:43.231Z,1018.41
2017-03-23T17:49:43.264Z,1018.37
2017-03-23T17:50:43.289Z,1018.36
2017-03-23T17:51:43.321Z,1018.41
2017-03-23T17:52:43.349Z,1018.42
